Time;durP1;ratioP1;P1;durP2;ratioP2;P2;SDS_P1;SDS_P2;PMS_P1;PMS_P2;Temp;Humidity;BMP_temperature;BMP_pressure;BME280_temperature;BME280_humidity;BME280_pressure;Samples;Min_cycle;Max_cycle;Signal;HPM_P1;HPM_P2
2023/01/30 00:00:21;;;;;;;32.00;18.67;;;3.60;99.90;;;;;;4994356;28;20188;-88
2023/01/30 00:02:47;;;;;;;31.33;17.03;;;3.70;99.90;;;;;;4967375;29;20188;-84
2023/01/30 00:05:13;;;;;;;35.50;17.63;;;3.70;99.90;;;;;;4966988;29;20433;-81
2023/01/30 00:07:39;;;;;;;33.23;18.97;;;3.70;99.90;;;;;;4963730;28;20193;-93
2023/01/30 00:10:04;;;;;;;28.43;18.10;;;3.70;99.90;;;;;;4984509;28;20506;-85
2023/01/30 00:12:30;;;;;;;31.43;17.30;;;3.80;99.90;;;;;;4982325;28;20172;-93
2023/01/30 00:14:55;;;;;;;32.70;20.13;;;3.80;99.90;;;;;;4980799;28;20238;-93
2023/01/30 00:17:21;;;;;;;34.27;18.80;;;3.90;99.90;;;;;;4981084;28;20175;-86
2023/01/30 00:19:46;;;;;;;30.40;18.20;;;3.80;99.90;;;;;;4981723;28;20182;-91
2023/01/30 00:22:12;;;;;;;28.70;19.53;;;3.90;99.90;;;;;;4981879;28;20220;-89
2023/01/30 00:24:37;;;;;;;35.83;17.83;;;3.90;99.90;;;;;;4982560;28;20178;-84
2023/01/30 00:27:03;;;;;;;35.87;17.83;;;3.90;99.90;;;;;;4985354;28;20226;-87
2023/01/30 00:29:28;;;;;;;36.87;21.57;;;3.90;99.90;;;;;;4980149;28;20184;-93
2023/01/30 00:31:53;;;;;;;35.70;18.13;;;3.90;99.90;;;;;;4978468;28;20180;-93
2023/01/30 00:34:19;;;;;;;40.40;21.00;;;3.90;99.90;;;;;;4977472;28;20210;-92
2023/01/30 00:36:44;;;;;;;39.43;20.17;;;3.90;99.90;;;;;;4978289;28;20232;-93
2023/01/30 00:39:10;;;;;;;33.17;18.80;;;3.90;99.90;;;;;;4978525;28;20270;-89
2023/01/30 00:47:04;;;;;;;30.80;15.80;;;4.00;99.90;;;;;;4983721;28;20857;-92
2023/01/30 00:49:29;;;;;;;26.20;17.13;;;4.00;99.90;;;;;;4978494;28;20427;-91
2023/01/30 00:51:55;;;;;;;33.17;18.10;;;4.00;99.90;;;;;;4963481;28;20525;-85
2023/01/30 00:54:20;;;;;;;32.90;20.10;;;4.10;99.90;;;;;;4981357;28;20254;-94
2023/01/30 00:56:46;;;;;;;28.13;16.00;;;4.10;99.90;;;;;;4979990;28;20531;-94
2023/01/30 00:59:11;;;;;;;29.03;17.43;;;4.10;99.90;;;;;;4980922;28;20227;-86
2023/01/30 01:01:37;;;;;;;40.00;18.97;;;4.10;99.90;;;;;;4979437;28;20177;-91
2023/01/30 01:04:02;;;;;;;33.97;17.67;;;4.20;99.90;;;;;;4978668;28;20716;-86
2023/01/30 01:06:28;;;;;;;29.97;16.50;;;4.20;99.90;;;;;;4944797;28;20227;-89
2023/01/30 01:08:53;;;;;;;29.80;18.33;;;4.20;99.90;;;;;;4981951;28;20191;-94
2023/01/30 01:11:25;;;;;;;31.83;17.93;;;4.20;99.90;;;;;;4980467;28;20172;-91
2023/01/30 01:13:52;;;;;;;28.70;15.70;;;4.20;99.90;;;;;;4978189;28;20173;-92
2023/01/30 01:16:18;;;;;;;30.80;19.00;;;4.20;99.90;;;;;;4986867;28;20448;-85
2023/01/30 01:18:43;;;;;;;30.47;17.20;;;4.30;99.90;;;;;;4982713;28;20412;-88
2023/01/30 01:21:08;;;;;;;33.23;18.47;;;4.30;99.90;;;;;;4978376;28;20177;-87
2023/01/30 01:23:34;;;;;;;32.43;17.30;;;4.30;99.90;;;;;;4974373;28;20177;-88
2023/01/30 01:26:03;;;;;;;34.80;17.03;;;4.30;99.90;;;;;;4975618;28;20239;-93
2023/01/30 01:28:28;;;;;;;29.77;16.93;;;4.40;99.90;;;;;;4976921;28;20186;-88
2023/01/30 01:30:54;;;;;;;30.37;18.07;;;4.40;99.90;;;;;;4976977;28;20805;-87
2023/01/30 01:33:19;;;;;;;28.80;17.30;;;4.40;99.90;;;;;;4977472;28;20177;-91
2023/01/30 01:35:46;;;;;;;32.07;17.03;;;4.40;99.90;;;;;;4979574;28;20218;-92
2023/01/30 01:38:21;;;;;;;28.80;17.40;;;4.50;99.90;;;;;;4959625;28;20248;-92
2023/01/30 01:41:02;;;;;;;31.50;16.87;;;4.50;99.90;;;;;;4975695;28;20452;-93
2023/01/30 01:43:34;;;;;;;31.80;17.70;;;4.50;99.90;;;;;;4975224;28;20414;-84
2023/01/30 01:46:08;;;;;;;28.13;15.60;;;4.50;99.90;;;;;;4970379;28;20494;-84
2023/01/30 01:48:38;;;;;;;30.23;16.97;;;4.60;99.90;;;;;;4974698;28;20420;-85
2023/01/30 01:51:23;;;;;;;34.73;18.60;;;4.60;99.90;;;;;;4976292;28;20429;-82
2023/01/30 01:54:07;;;;;;;30.57;16.30;;;4.70;99.90;;;;;;4988763;28;20506;-89
2023/01/30 01:56:34;;;;;;;29.50;16.13;;;4.70;99.90;;;;;;4976321;28;20503;-90
2023/01/30 01:59:18;;;;;;;27.30;16.67;;;4.70;99.90;;;;;;4975707;28;20420;-90
2023/01/30 02:01:44;;;;;;;27.90;16.90;;;4.70;99.90;;;;;;4974720;28;20485;-87
2023/01/30 02:04:10;;;;;;;34.83;16.63;;;4.80;99.90;;;;;;4974713;28;20425;-87
2023/01/30 02:06:39;;;;;;;25.27;16.27;;;4.80;99.90;;;;;;4974222;28;20427;-86
2023/01/30 02:09:10;;;;;;;25.33;14.20;;;4.80;99.90;;;;;;4975162;28;20774;-89
2023/01/30 02:11:54;;;;;;;29.67;17.00;;;4.80;99.90;;;;;;4974215;28;20516;-88
2023/01/30 02:14:21;;;;;;;24.93;13.77;;;4.80;99.90;;;;;;4974873;28;20994;-90
2023/01/30 02:16:46;;;;;;;25.17;14.37;;;4.80;99.90;;;;;;4974640;28;20511;-90
2023/01/30 02:19:35;;;;;;;28.57;16.80;;;4.80;99.90;;;;;;4973926;28;20943;-89
2023/01/30 02:22:28;;;;;;;27.83;15.07;;;4.80;99.90;;;;;;4973300;28;20579;-90
2023/01/30 02:25:26;;;;;;;25.97;17.57;;;4.80;99.90;;;;;;4974855;28;20517;-89
2023/01/30 02:28:10;;;;;;;28.33;14.60;;;4.80;99.90;;;;;;4974708;28;20936;-90
2023/01/30 02:30:50;;;;;;;19.70;12.77;;;4.80;99.90;;;;;;4973654;28;20424;-89
2023/01/30 02:33:18;;;;;;;25.87;15.27;;;4.80;99.90;;;;;;4973598;28;20850;-87
2023/01/30 02:36:18;;;;;;;29.23;14.77;;;4.80;99.90;;;;;;4972800;28;20467;-90
2023/01/30 02:39:06;;;;;;;20.40;11.83;;;4.80;99.90;;;;;;4974174;28;20500;-81
2023/01/30 02:42:13;;;;;;;26.37;15.10;;;4.90;99.90;;;;;;4974814;28;20428;-89
2023/01/30 02:44:51;;;;;;;24.70;13.57;;;4.90;99.90;;;;;;4967646;28;20821;-91
2023/01/30 02:47:39;;;;;;;29.50;13.37;;;4.90;99.90;;;;;;4961541;28;20430;-85
2023/01/30 02:50:15;;;;;;;19.60;11.87;;;4.90;99.90;;;;;;4978355;28;20407;-93
2023/01/30 02:52:42;;;;;;;24.90;14.03;;;5.00;99.90;;;;;;4977963;28;20423;-87
2023/01/30 02:55:23;;;;;;;27.33;15.30;;;5.00;99.90;;;;;;4938812;28;20488;-90
2023/01/30 02:57:48;;;;;;;18.03;11.50;;;5.00;99.90;;;;;;4978036;28;20407;-84
2023/01/30 03:00:21;;;;;;;23.13;13.20;;;5.00;99.90;;;;;;4979717;28;20439;-92
2023/01/30 03:03:11;;;;;;;22.50;13.97;;;5.00;99.90;;;;;;4978392;28;20175;-90
2023/01/30 03:05:55;;;;;;;17.77;11.57;;;5.10;99.90;;;;;;4977788;28;20427;-93
2023/01/30 03:08:38;;;;;;;24.80;13.00;;;5.10;99.90;;;;;;4976644;28;20492;-88
2023/01/30 03:11:07;;;;;;;17.50;10.67;;;5.10;99.90;;;;;;4976702;28;20430;-89
2023/01/30 03:14:06;;;;;;;13.33;8.70;;;5.20;99.90;;;;;;4960678;28;20915;-86
2023/01/30 03:16:38;;;;;;;16.97;9.17;;;5.20;99.90;;;;;;4947847;28;20446;-87
2023/01/30 03:19:08;;;;;;;16.53;10.30;;;5.30;99.90;;;;;;4964471;28;20977;-91
2023/01/30 03:21:33;;;;;;;20.73;10.10;;;5.30;99.90;;;;;;4980764;28;20495;-88
2023/01/30 03:23:59;;;;;;;21.97;11.20;;;5.40;99.90;;;;;;4960458;28;20437;-93
2023/01/30 03:26:29;;;;;;;19.40;10.23;;;5.40;99.90;;;;;;4977909;28;20174;-90
2023/01/30 03:28:55;;;;;;;17.93;10.60;;;5.40;99.90;;;;;;4977610;28;20170;-91
2023/01/30 03:31:21;;;;;;;16.77;9.57;;;5.40;99.90;;;;;;4977789;28;20770;-93
2023/01/30 03:33:46;;;;;;;20.37;9.23;;;5.40;99.90;;;;;;4978609;28;20425;-94
2023/01/30 03:36:12;;;;;;;15.17;9.10;;;5.50;99.90;;;;;;4977686;28;20194;-80
2023/01/30 03:38:38;;;;;;;14.30;10.57;;;5.50;99.90;;;;;;4960061;28;20633;-81
2023/01/30 03:41:04;;;;;;;18.17;9.43;;;5.50;99.90;;;;;;4977246;28;20491;-80
2023/01/30 03:43:30;;;;;;;10.83;7.03;;;5.50;99.90;;;;;;4976549;28;20187;-80
2023/01/30 03:45:55;;;;;;;16.13;9.57;;;5.60;99.90;;;;;;4959837;28;20436;-81
2023/01/30 03:48:24;;;;;;;19.47;9.60;;;5.60;99.90;;;;;;4974421;28;20696;-80
2023/01/30 03:50:52;;;;;;;14.90;8.73;;;5.60;99.90;;;;;;4959020;28;20670;-79
2023/01/30 03:53:17;;;;;;;13.07;7.90;;;5.60;99.90;;;;;;4975023;28;20423;-83
2023/01/30 03:55:44;;;;;;;15.03;9.20;;;5.60;99.90;;;;;;4958717;28;20477;-80
2023/01/30 03:58:09;;;;;;;12.00;7.17;;;5.60;99.90;;;;;;4974842;28;20175;-80
2023/01/30 04:00:35;;;;;;;13.07;6.17;;;5.60;99.90;;;;;;4975983;28;20484;-81
2023/01/30 04:03:01;;;;;;;13.20;7.27;;;5.60;99.90;;;;;;4976264;28;20174;-84
2023/01/30 04:05:26;;;;;;;10.83;6.73;;;5.70;99.90;;;;;;4976012;28;20256;-80
2023/01/30 04:07:55;;;;;;;10.60;6.57;;;5.70;99.90;;;;;;4975786;28;20189;-83
2023/01/30 04:10:21;;;;;;;11.50;7.70;;;5.70;99.90;;;;;;4976068;28;20169;-84
2023/01/30 04:12:46;;;;;;;11.80;7.03;;;5.70;99.90;;;;;;4976233;28;20506;-80
2023/01/30 04:15:12;;;;;;;13.00;7.13;;;5.70;99.90;;;;;;4974644;28;20705;-80
2023/01/30 04:17:37;;;;;;;12.57;5.83;;;5.70;99.90;;;;;;4975795;28;20175;-80
2023/01/30 04:20:04;;;;;;;14.23;8.27;;;5.80;99.90;;;;;;4975945;28;20177;-85
2023/01/30 04:22:29;;;;;;;14.70;7.80;;;5.80;99.90;;;;;;4936481;28;20265;-80
2023/01/30 04:24:55;;;;;;;14.47;9.13;;;5.80;99.90;;;;;;4958257;28;20523;-82
2023/01/30 04:27:20;;;;;;;12.23;6.33;;;5.80;99.90;;;;;;4976114;28;20526;-79
2023/01/30 04:29:46;;;;;;;13.97;6.70;;;5.80;99.90;;;;;;4975635;28;20574;-81
2023/01/30 04:32:11;;;;;;;18.50;8.87;;;5.80;99.90;;;;;;4975768;28;20634;-81
2023/01/30 04:34:37;;;;;;;10.83;5.30;;;5.80;99.90;;;;;;4958213;28;20202;-86
2023/01/30 04:37:02;;;;;;;8.37;4.70;;;5.90;99.90;;;;;;4975266;28;20307;-86
2023/01/30 04:39:28;;;;;;;13.37;6.23;;;5.90;99.90;;;;;;4974849;28;20229;-90
2023/01/30 04:41:53;;;;;;;11.57;5.67;;;5.90;99.90;;;;;;4959050;28;20186;-87
2023/01/30 04:44:19;;;;;;;10.80;5.43;;;5.90;99.90;;;;;;4976372;28;20174;-92
2023/01/30 04:46:44;;;;;;;11.03;4.73;;;5.90;99.90;;;;;;4977243;28;20186;-81
2023/01/30 04:49:10;;;;;;;12.17;5.30;;;5.90;99.90;;;;;;4976178;28;20177;-81
2023/01/30 04:51:36;;;;;;;7.90;4.67;;;5.90;99.90;;;;;;4974942;28;20213;-87
2023/01/30 04:54:01;;;;;;;8.03;4.60;;;5.80;99.90;;;;;;4975084;28;20181;-80
2023/01/30 04:56:27;;;;;;;11.00;5.90;;;5.80;99.90;;;;;;4975324;28;20258;-80
2023/01/30 04:58:53;;;;;;;11.70;5.33;;;5.80;99.90;;;;;;4975074;28;20668;-85
2023/01/30 05:01:30;;;;;;;6.13;3.20;;;5.80;99.90;;;;;;4974955;28;20419;-83
2023/01/30 05:03:56;;;;;;;7.20;3.23;;;5.80;99.90;;;;;;4957617;28;20775;-80
2023/01/30 05:06:22;;;;;;;10.00;2.90;;;5.80;99.90;;;;;;4974691;28;20498;-82
2023/01/30 05:08:49;;;;;;;7.33;2.90;;;5.80;99.90;;;;;;4975608;28;20178;-83
2023/01/30 05:11:15;;;;;;;6.40;3.60;;;5.70;99.90;;;;;;4975390;28;20725;-81
2023/01/30 05:13:42;;;;;;;6.57;2.87;;;5.70;99.90;;;;;;4958118;28;20421;-80
2023/01/30 05:16:07;;;;;;;8.77;3.90;;;5.70;99.90;;;;;;4957745;28;20475;-80
2023/01/30 05:18:33;;;;;;;8.30;2.77;;;5.70;99.90;;;;;;4977173;28;20763;-85
2023/01/30 05:21:10;;;;;;;7.63;3.47;;;5.70;99.90;;;;;;4979391;28;20294;-87
2023/01/30 05:23:36;;;;;;;4.80;2.80;;;5.70;99.90;;;;;;4961650;28;20641;-86
2023/01/30 05:26:02;;;;;;;8.40;2.70;;;5.70;99.90;;;;;;4961432;28;20574;-81
2023/01/30 05:28:28;;;;;;;7.17;2.83;;;5.70;99.90;;;;;;4963373;28;20169;-82
2023/01/30 05:31:02;;;;;;;8.77;2.93;;;5.70;99.90;;;;;;4962117;28;20436;-81
2023/01/30 05:33:27;;;;;;;9.40;3.07;;;5.70;99.90;;;;;;4980460;28;20466;-81
2023/01/30 05:35:53;;;;;;;7.53;3.00;;;5.70;99.90;;;;;;4958099;28;20503;-84
2023/01/30 05:38:18;;;;;;;4.63;1.93;;;5.70;99.90;;;;;;4958340;28;20249;-84
2023/01/30 05:40:44;;;;;;;7.80;3.30;;;5.70;99.90;;;;;;4958810;28;20184;-82
2023/01/30 05:43:09;;;;;;;3.70;1.83;;;5.70;99.90;;;;;;4959185;28;20181;-82
2023/01/30 05:45:35;;;;;;;2.60;0.87;;;5.70;99.90;;;;;;4976365;28;20205;-82
2023/01/30 05:48:02;;;;;;;4.60;1.40;;;5.70;99.90;;;;;;4977223;28;20634;-82
2023/01/30 05:50:28;;;;;;;6.93;1.07;;;5.70;99.90;;;;;;4960284;28;20433;-82
2023/01/30 05:52:54;;;;;;;6.73;1.27;;;5.60;99.90;;;;;;4980089;28;20936;-83
2023/01/30 05:55:19;;;;;;;5.40;0.70;;;5.60;99.90;;;;;;4946189;28;20472;-81
2023/01/30 05:57:44;;;;;;;8.50;0.93;;;5.60;99.90;;;;;;4962972;28;20539;-82
2023/01/30 06:00:11;;;;;;;8.03;1.57;;;5.60;99.90;;;;;;4963266;28;20232;-83
2023/01/30 06:02:37;;;;;;;1.83;1.20;;;5.50;99.90;;;;;;4982410;28;20209;-84
2023/01/30 06:05:05;;;;;;;4.27;0.37;;;5.40;99.90;;;;;;4981474;28;20410;-81
2023/01/30 06:07:31;;;;;;;7.67;0.80;;;5.40;99.90;;;;;;4965100;28;20420;-82
2023/01/30 06:09:56;;;;;;;7.73;1.20;;;5.40;99.90;;;;;;4963043;28;20418;-81
2023/01/30 06:12:22;;;;;;;5.00;0.60;;;5.30;99.90;;;;;;4965747;28;20192;-91
2023/01/30 06:14:47;;;;;;;9.63;0.90;;;5.20;99.90;;;;;;4963786;28;20266;-80
2023/01/30 06:17:13;;;;;;;7.77;0.47;;;5.10;99.90;;;;;;4981848;28;20264;-81
2023/01/30 06:19:38;;;;;;;4.93;0.80;;;5.00;99.90;;;;;;4982608;28;20187;-80
2023/01/30 06:22:04;;;;;;;7.00;0.80;;;5.00;99.90;;;;;;4977887;28;20693;-81
2023/01/30 06:24:29;;;;;;;3.50;0.50;;;5.00;99.90;;;;;;4977660;28;20316;-86
2023/01/30 06:26:55;;;;;;;6.20;0.57;;;5.00;99.90;;;;;;4961078;28;20622;-83
2023/01/30 06:29:20;;;;;;;3.47;0.47;;;5.00;99.90;;;;;;4976534;28;20212;-79
2023/01/30 06:31:46;;;;;;;6.13;0.60;;;5.00;99.90;;;;;;4978444;28;20182;-81
2023/01/30 06:34:11;;;;;;;7.90;1.40;;;5.10;99.90;;;;;;4977985;28;20244;-82
2023/01/30 06:36:37;;;;;;;2.53;0.67;;;5.20;99.90;;;;;;4975241;28;20232;-82
2023/01/30 06:39:03;;;;;;;7.90;0.60;;;5.20;99.90;;;;;;4998634;28;20201;-83
2023/01/30 06:41:28;;;;;;;3.60;0.37;;;5.20;99.90;;;;;;4989418;28;20186;-93
2023/01/30 06:43:54;;;;;;;8.70;0.70;;;5.10;99.90;;;;;;4983464;28;20463;-95
2023/01/30 06:46:20;;;;;;;9.37;0.60;;;5.10;99.90;;;;;;4986939;28;20177;-94
2023/01/30 06:48:45;;;;;;;6.73;0.73;;;5.00;99.90;;;;;;4990628;28;20172;-88
2023/01/30 06:51:11;;;;;;;4.73;0.77;;;5.00;99.90;;;;;;4982800;28;20634;-90
2023/01/30 06:53:36;;;;;;;11.33;1.50;;;5.00;99.90;;;;;;4982774;28;20623;-88
2023/01/30 06:56:02;;;;;;;4.77;0.53;;;5.00;99.90;;;;;;4972254;28;20247;-93
2023/01/30 06:58:28;;;;;;;3.50;0.33;;;5.00;99.90;;;;;;4946343;28;20229;-94
2023/01/30 07:00:54;;;;;;;5.43;1.07;;;5.00;99.90;;;;;;4971768;28;20212;-94
2023/01/30 07:03:19;;;;;;;6.50;1.07;;;4.90;99.90;;;;;;4970010;28;20772;-88
2023/01/30 07:05:46;;;;;;;7.97;0.70;;;4.90;99.90;;;;;;4964979;28;20170;-91
2023/01/30 07:08:13;;;;;;;3.03;0.50;;;5.00;99.90;;;;;;4973203;28;20181;-93
2023/01/30 07:10:39;;;;;;;3.67;1.97;;;4.90;99.90;;;;;;4969560;28;20921;-90
2023/01/30 07:13:04;;;;;;;5.70;0.50;;;4.90;99.90;;;;;;4976856;28;21020;-93
2023/01/30 07:15:40;;;;;;;6.77;1.00;;;4.90;99.90;;;;;;4961463;29;20559;-94
2023/01/30 07:18:05;;;;;;;3.97;1.20;;;4.90;99.90;;;;;;4948040;28;20188;-92
2023/01/30 07:20:31;;;;;;;7.10;0.93;;;4.90;99.90;;;;;;4972054;28;20424;-87
2023/01/30 07:22:57;;;;;;;10.83;0.70;;;4.90;99.90;;;;;;4969504;28;20183;-92
2023/01/30 07:25:24;;;;;;;6.07;0.50;;;4.90;99.90;;;;;;4968601;28;20213;-93
2023/01/30 07:27:52;;;;;;;10.77;1.40;;;4.90;99.90;;;;;;4966981;28;20423;-89
2023/01/30 07:30:18;;;;;;;6.40;1.13;;;5.00;99.90;;;;;;4967856;28;20426;-93
2023/01/30 07:32:43;;;;;;;9.63;1.70;;;5.00;99.90;;;;;;4962465;28;20435;-90
2023/01/30 07:35:09;;;;;;;11.83;0.90;;;5.00;99.90;;;;;;4958347;28;20480;-92
2023/01/30 07:37:34;;;;;;;8.90;1.23;;;5.00;99.90;;;;;;4957311;28;20229;-91
2023/01/30 07:39:59;;;;;;;10.70;1.47;;;5.00;99.90;;;;;;4976926;28;20189;-92
2023/01/30 07:42:25;;;;;;;3.30;0.50;;;5.00;99.90;;;;;;4965211;28;20180;-93
2023/01/30 07:44:50;;;;;;;9.37;1.50;;;5.00;99.90;;;;;;4982166;28;20183;-90
2023/01/30 07:47:18;;;;;;;6.63;1.03;;;5.00;99.90;;;;;;4970800;28;20236;-89
2023/01/30 07:49:50;;;;;;;4.80;0.97;;;5.10;99.90;;;;;;4974435;28;20167;-93
2023/01/30 07:52:16;;;;;;;5.30;1.03;;;5.20;99.90;;;;;;4975794;28;20444;-92
2023/01/30 07:54:41;;;;;;;7.63;0.93;;;5.30;99.90;;;;;;4975152;29;20472;-86
2023/01/30 07:57:06;;;;;;;16.23;2.10;;;5.30;99.90;;;;;;4970540;28;20193;-91
2023/01/30 07:59:32;;;;;;;18.43;2.00;;;5.40;99.90;;;;;;4968331;29;20181;-83
2023/01/30 08:01:58;;;;;;;13.47;3.67;;;5.40;99.90;;;;;;4964230;29;20558;-88
2023/01/30 08:04:23;;;;;;;8.27;1.27;;;5.50;99.90;;;;;;4957767;28;20190;-90
2023/01/30 08:06:49;;;;;;;11.80;1.73;;;5.70;99.90;;;;;;4958601;29;20178;-90
2023/01/30 08:09:14;;;;;;;7.90;2.07;;;5.90;99.90;;;;;;4957868;29;20175;-79
2023/01/30 08:11:40;;;;;;;16.83;2.40;;;6.00;99.90;;;;;;4958430;28;20210;-84
2023/01/30 08:14:05;;;;;;;8.90;1.60;;;5.90;99.90;;;;;;4959990;28;20179;-92
2023/01/30 08:16:33;;;;;;;10.87;1.60;;;6.00;99.90;;;;;;4959602;29;20174;-92
2023/01/30 08:18:59;;;;;;;9.70;2.10;;;6.00;99.90;;;;;;4961223;29;20185;-90
2023/01/30 08:21:24;;;;;;;10.60;2.73;;;6.00;99.90;;;;;;4959888;29;20762;-91
2023/01/30 08:23:56;;;;;;;13.07;2.53;;;6.10;99.90;;;;;;4958619;29;20202;-94
2023/01/30 08:26:21;;;;;;;6.03;1.13;;;6.00;99.90;;;;;;4959115;29;20534;-90
2023/01/30 08:28:49;;;;;;;15.30;3.00;;;5.90;99.90;;;;;;4958621;29;20429;-92
2023/01/30 08:31:16;;;;;;;16.90;2.73;;;5.80;99.90;;;;;;4961112;28;20191;-92
2023/01/30 08:33:41;;;;;;;9.80;2.17;;;5.70;99.90;;;;;;4965986;28;20409;-91
2023/01/30 08:36:07;;;;;;;8.70;1.47;;;5.70;99.90;;;;;;4963868;29;21018;-92
2023/01/30 08:38:34;;;;;;;14.67;1.90;;;5.70;99.90;;;;;;4964583;28;20231;-92
2023/01/30 08:41:00;;;;;;;13.40;1.63;;;5.60;99.90;;;;;;4964894;29;20407;-89
2023/01/30 08:43:26;;;;;;;11.87;2.70;;;5.60;99.90;;;;;;4965445;28;20421;-91
2023/01/30 08:45:55;;;;;;;11.17;2.97;;;5.80;99.90;;;;;;4965157;29;20174;-89
2023/01/30 08:48:21;;;;;;;15.73;2.37;;;6.00;99.90;;;;;;4963751;28;20430;-92
2023/01/30 08:50:47;;;;;;;8.60;1.77;;;6.00;99.90;;;;;;4967341;29;20426;-94
2023/01/30 08:53:12;;;;;;;8.67;1.90;;;6.00;99.90;;;;;;4967864;29;20477;-92
2023/01/30 08:55:42;;;;;;;9.83;2.60;;;6.10;99.90;;;;;;4966887;29;20223;-93
2023/01/30 08:58:10;;;;;;;16.53;2.53;;;6.00;99.90;;;;;;4954115;29;20192;-89
2023/01/30 09:00:38;;;;;;;10.00;1.63;;;6.10;99.90;;;;;;4971593;28;20433;-94
2023/01/30 09:03:03;;;;;;;10.57;1.83;;;6.10;99.90;;;;;;4970748;29;20498;-85
2023/01/30 09:05:31;;;;;;;10.33;2.90;;;6.20;99.90;;;;;;4965460;28;20431;-93
2023/01/30 09:07:56;;;;;;;14.10;2.63;;;7.50;95.50;;;;;;4963744;29;20226;-90
2023/01/30 09:10:23;;;;;;;17.07;3.13;;;7.80;1.00;;;;;;4964495;29;20427;-89
2023/01/30 09:12:48;;;;;;;13.00;2.00;;;8.10;1.00;;;;;;4973514;28;20160;-79
2023/01/30 09:15:14;;;;;;;14.10;2.40;;;7.40;22.50;;;;;;4967711;29;20476;-79
2023/01/30 09:17:39;;;;;;;17.97;2.13;;;8.50;1.00;;;;;;4965709;29;20180;-91
2023/01/30 09:20:07;;;;;;;12.90;1.20;;;8.30;1.00;;;;;;4964263;29;20660;-87
2023/01/30 09:22:34;;;;;;;14.63;1.37;;;6.80;99.90;;;;;;4963529;28;20173;-91
2023/01/30 09:24:59;;;;;;;8.77;1.63;;;6.80;99.90;;;;;;4962762;28;20515;-93
2023/01/30 09:27:27;;;;;;;10.20;1.33;;;6.50;99.90;;;;;;4964250;28;20523;-88
2023/01/30 09:29:53;;;;;;;8.97;1.90;;;6.50;99.90;;;;;;4973532;28;20191;-91
2023/01/30 09:32:19;;;;;;;9.20;1.10;;;6.40;99.90;;;;;;4981988;28;20496;-86
2023/01/30 09:34:44;;;;;;;10.77;1.77;;;6.20;99.90;;;;;;4980245;28;20217;-90
2023/01/30 09:37:09;;;;;;;12.93;2.13;;;6.20;99.90;;;;;;4977967;28;20232;-84
2023/01/30 09:39:35;;;;;;;20.47;3.73;;;6.20;99.90;;;;;;4955170;28;20194;-77
2023/01/30 09:42:04;;;;;;;17.03;2.00;;;6.30;99.90;;;;;;4967788;28;20203;-91
2023/01/30 09:44:57;;;;;;;12.97;1.30;;;6.20;99.90;;;;;;4982430;28;20178;-91
2023/01/30 09:47:49;;;;;;;13.67;2.70;;;6.40;99.90;;;;;;4982871;28;20403;-88
2023/01/30 09:50:39;;;;;;;10.20;1.90;;;8.00;99.90;;;;;;4982264;28;20438;-93
2023/01/30 09:53:16;;;;;;;9.93;1.87;;;7.50;23.10;;;;;;4983262;28;20411;-89
2023/01/30 09:55:43;;;;;;;12.10;1.63;;;7.00;99.90;;;;;;4982436;28;20499;-86
2023/01/30 09:58:17;;;;;;;16.13;2.40;;;7.00;99.90;;;;;;4979505;28;20464;-84
2023/01/30 10:00:43;;;;;;;21.77;3.20;;;7.80;99.90;;;;;;4975019;28;20434;-88
2023/01/30 10:03:22;;;;;;;14.87;1.87;;;8.60;99.90;;;;;;4975482;28;20422;-92
2023/01/30 10:05:53;;;;;;;10.27;2.70;;;10.60;1.00;;;;;;4974603;28;20772;-81
2023/01/30 10:08:43;;;;;;;9.20;1.73;;;9.40;37.80;;;;;;4975684;28;20494;-81
2023/01/30 10:11:27;;;;;;;10.17;1.60;;;8.60;99.90;;;;;;4975226;28;20425;-79
2023/01/30 10:14:15;;;;;;;7.03;1.20;;;8.00;1.00;;;;;;4976074;28;20412;-87
2023/01/30 10:17:03;;;;;;;8.53;2.03;;;7.60;1.00;;;;;;4958283;28;20447;-81
2023/01/30 10:20:01;;;;;;;10.10;2.50;;;7.20;53.10;;;;;;4975310;28;20432;-90
2023/01/30 10:22:37;;;;;;;20.87;2.03;;;6.80;99.90;;;;;;4969108;28;20517;-89
2023/01/30 10:25:30;;;;;;;8.90;1.50;;;6.60;99.90;;;;;;4974691;28;20428;-86
2023/01/30 10:28:19;;;;;;;7.10;1.23;;;6.50;99.90;;;;;;4975242;28;20418;-88
2023/01/30 10:30:48;;;;;;;18.67;2.57;;;6.40;99.90;;;;;;4976238;28;20414;-90
2023/01/30 10:33:44;;;;;;;8.57;1.40;;;6.40;99.90;;;;;;4959007;28;20506;-90
2023/01/30 10:36:29;;;;;;;11.30;3.13;;;6.30;99.90;;;;;;4976704;28;20963;-91
2023/01/30 10:38:58;;;;;;;15.27;1.80;;;6.20;99.90;;;;;;4976848;28;20422;-82
2023/01/30 10:41:29;;;;;;;15.20;2.20;;;6.20;99.90;;;;;;4964578;28;20501;-89
2023/01/30 10:44:07;;;;;;;7.23;1.90;;;6.20;99.90;;;;;;4977207;28;20543;-89
2023/01/30 10:46:39;;;;;;;6.40;1.70;;;6.10;99.90;;;;;;4977556;28;20446;-92
2023/01/30 10:49:24;;;;;;;14.73;1.77;;;6.10;99.90;;;;;;4976041;28;20413;-86
2023/01/30 10:52:26;;;;;;;13.10;1.57;;;6.10;99.90;;;;;;4975972;28;20748;-93
2023/01/30 10:55:05;;;;;;;4.90;1.07;;;5.50;99.90;;;;;;4976112;28;20984;-80
2023/01/30 10:57:51;;;;;;;4.17;1.17;;;5.40;99.90;;;;;;4976560;28;20429;-79
2023/01/30 11:00:26;;;;;;;7.90;1.33;;;5.70;99.90;;;;;;4975969;28;20433;-90
2023/01/30 11:03:10;;;;;;;8.40;1.20;;;5.90;99.90;;;;;;4965526;28;20493;-90
2023/01/30 11:05:49;;;;;;;6.73;1.13;;;6.00;99.90;;;;;;4959290;29;20403;-87
2023/01/30 11:08:27;;;;;;;9.87;1.10;;;6.10;99.90;;;;;;4959573;28;20411;-87
2023/01/30 11:10:54;;;;;;;9.73;1.30;;;5.90;99.90;;;;;;4964990;29;20804;-90
2023/01/30 11:13:25;;;;;;;7.27;0.60;;;5.80;99.90;;;;;;4960044;28;20508;-87
2023/01/30 11:15:55;;;;;;;6.07;0.77;;;5.50;99.90;;;;;;4936180;28;20813;-86
2023/01/30 11:18:22;;;;;;;10.20;1.50;;;5.30;99.90;;;;;;4978959;28;20915;-86
2023/01/30 11:21:13;;;;;;;3.07;1.03;;;5.20;99.90;;;;;;4978417;28;20753;-85
2023/01/30 11:23:41;;;;;;;5.10;0.67;;;5.20;99.90;;;;;;4978504;28;20995;-89
2023/01/30 11:26:16;;;;;;;6.33;0.80;;;5.20;99.90;;;;;;4977556;28;20497;-87
2023/01/30 11:28:43;;;;;;;5.90;1.07;;;5.10;99.90;;;;;;4979778;28;20482;-94
2023/01/30 11:31:24;;;;;;;3.20;0.60;;;5.10;99.90;;;;;;4979266;28;20476;-90
2023/01/30 11:34:02;;;;;;;3.43;1.07;;;5.00;99.90;;;;;;4978854;28;20444;-92
2023/01/30 11:36:30;;;;;;;2.20;0.30;;;5.00;99.90;;;;;;4980288;28;20428;-86
2023/01/30 11:39:18;;;;;;;4.40;0.50;;;5.00;99.90;;;;;;4978886;28;20432;-92
2023/01/30 11:42:09;;;;;;;1.80;0.30;;;4.90;99.90;;;;;;4976787;28;20421;-92
2023/01/30 11:44:36;;;;;;;3.63;0.30;;;4.90;99.90;;;;;;4975606;28;20437;-92
2023/01/30 11:47:22;;;;;;;3.33;0.20;;;4.90;99.90;;;;;;4968474;28;20420;-84
2023/01/30 11:49:53;;;;;;;4.30;0.63;;;4.90;99.90;;;;;;4965360;28;20512;-85
2023/01/30 11:52:23;;;;;;;3.20;0.63;;;4.90;99.90;;;;;;4978209;28;20408;-82
2023/01/30 11:54:49;;;;;;;4.17;0.30;;;5.00;99.90;;;;;;4974532;28;20476;-92
2023/01/30 11:57:17;;;;;;;1.17;0.40;;;5.10;99.90;;;;;;4967957;28;20424;-92
2023/01/30 11:59:48;;;;;;;5.10;0.47;;;5.70;99.90;;;;;;4948421;29;20431;-93
2023/01/30 12:02:30;;;;;;;2.73;0.50;;;6.10;99.90;;;;;;4971948;28;20410;-94
2023/01/30 12:04:59;;;;;;;2.70;0.40;;;6.10;99.90;;;;;;4979224;28;20487;-92
2023/01/30 12:07:27;;;;;;;8.77;0.77;;;6.70;99.90;;;;;;4984038;28;20419;-82
2023/01/30 12:09:54;;;;;;;1.50;0.50;;;7.00;99.90;;;;;;5053086;23;20493;-89
2023/01/30 12:12:49;;;;;;;1.77;0.50;;;7.00;99.90;;;;;;5042684;28;20424;-94
2023/01/30 12:15:23;;;;;;;9.60;0.87;;;7.10;99.90;;;;;;5050259;28;20505;-93
2023/01/30 12:18:00;;;;;;;4.47;1.90;;;7.50;28.10;;;;;;4990784;28;20436;-87
2023/01/30 12:20:54;;;;;;;4.77;1.10;;;6.60;99.90;;;;;;5040388;28;20445;-93
2023/01/30 12:23:32;;;;;;;5.80;0.60;;;6.60;99.90;;;;;;5011292;28;20563;-92
2023/01/30 12:26:26;;;;;;;13.10;1.40;;;6.50;99.90;;;;;;5033777;28;20431;-93
2023/01/30 12:29:27;;;;;;;4.90;0.40;;;6.40;99.90;;;;;;5029241;28;20429;-92
2023/01/30 12:32:14;;;;;;;7.43;0.60;;;6.30;99.90;;;;;;5035019;28;20425;-90
2023/01/30 12:34:42;;;;;;;10.23;0.97;;;6.00;99.90;;;;;;5027145;28;20473;-82
2023/01/30 12:37:39;;;;;;;9.43;1.00;;;5.80;99.90;;;;;;5039493;28;20423;-87
2023/01/30 12:40:34;;;;;;;6.30;0.90;;;5.80;99.90;;;;;;5023468;28;20441;-91
2023/01/30 12:43:21;;;;;;;8.33;1.23;;;5.60;99.90;;;;;;5029130;28;20407;-90
2023/01/30 12:46:06;;;;;;;4.43;0.70;;;5.60;99.90;;;;;;5032267;28;20508;-87
2023/01/30 12:48:41;;;;;;;5.90;1.00;;;5.70;99.90;;;;;;5009532;28;20440;-91
2023/01/30 12:51:26;;;;;;;6.30;1.37;;;5.80;99.90;;;;;;5037886;28;20436;-78
2023/01/30 12:53:59;;;;;;;4.40;0.93;;;5.80;99.90;;;;;;5010913;28;20435;-87
2023/01/30 12:56:42;;;;;;;4.27;1.27;;;5.80;99.90;;;;;;5024069;28;20529;-90
2023/01/30 12:59:31;;;;;;;7.80;1.10;;;7.10;99.90;;;;;;5007126;28;20432;-78
2023/01/30 13:02:01;;;;;;;10.90;1.37;;;6.40;99.90;;;;;;5031082;28;20521;-79
2023/01/30 13:04:58;;;;;;;9.60;1.27;;;6.10;99.90;;;;;;5029989;28;20523;-91
2023/01/30 13:07:40;;;;;;;19.03;2.80;;;6.00;99.90;;;;;;5006201;28;20452;-82
2023/01/30 13:10:21;;;;;;;13.07;2.17;;;6.30;99.90;;;;;;5026833;28;20934;-78
2023/01/30 13:13:08;;;;;;;5.27;0.50;;;6.30;99.90;;;;;;5032544;28;20430;-93